createdAt,value
2018-09-23T00:02:33.434Z,2.60
2018-09-23T00:12:34.694Z,2.30
2018-09-23T00:22:35.968Z,1.70
2018-09-23T00:32:37.212Z,2.17
2018-09-23T00:42:38.453Z,2.40
2018-09-23T00:52:39.718Z,2.27
2018-09-23T01:02:40.989Z,2.00
2018-09-23T01:12:42.249Z,2.20
2018-09-23T01:22:43.540Z,2.17
2018-09-23T01:32:44.806Z,4.20
2018-09-23T01:42:46.827Z,3.33
2018-09-23T01:52:48.836Z,2.50
2018-09-23T02:02:50.102Z,2.60
2018-09-23T02:12:51.357Z,3.50
2018-09-23T02:22:52.617Z,3.60
2018-09-23T02:32:53.877Z,3.00
2018-09-23T02:42:55.140Z,2.47
2018-09-23T02:52:56.427Z,2.43
2018-09-23T03:02:57.678Z,2.30
2018-09-23T03:12:58.947Z,2.73
2018-09-23T03:23:00.237Z,2.93
2018-09-23T03:33:01.518Z,3.17
2018-09-23T03:43:02.764Z,4.20
2018-09-23T03:53:04.025Z,3.60
2018-09-23T04:03:05.290Z,3.90
2018-09-23T04:13:06.542Z,3.47
2018-09-23T04:23:07.793Z,4.07
2018-09-23T04:33:09.137Z,3.40
2018-09-23T04:43:10.417Z,3.63
2018-09-23T04:53:11.695Z,3.63
2018-09-23T05:03:12.955Z,3.77
2018-09-23T05:13:14.982Z,4.37
2018-09-23T05:23:16.251Z,4.43
2018-09-23T05:33:17.518Z,3.87
2018-09-23T05:43:18.842Z,4.00
2018-09-23T05:53:20.079Z,4.33
2018-09-23T06:03:21.456Z,4.10
2018-09-23T06:13:22.725Z,4.57
2018-09-23T06:23:24.038Z,3.57
2018-09-23T06:33:26.077Z,3.23
2018-09-23T06:43:27.365Z,7.73
2018-09-23T06:53:29.258Z,5.40
2018-09-23T07:03:31.372Z,4.20
2018-09-23T07:13:33.413Z,4.53
2018-09-23T07:23:34.811Z,4.03
2018-09-23T07:33:36.075Z,4.27
2018-09-23T07:43:37.847Z,4.00
2018-09-23T07:53:39.146Z,4.00
2018-09-23T08:03:40.395Z,4.00
2018-09-23T08:13:41.830Z,4.40
2018-09-23T08:23:42.976Z,4.37
2018-09-23T08:33:45.579Z,3.90
2018-09-23T08:43:46.871Z,3.47
2018-09-23T08:53:48.916Z,3.40
2018-09-23T09:03:50.213Z,2.60
2018-09-23T09:13:51.459Z,3.63
2018-09-23T09:23:52.714Z,3.37
2018-09-23T09:33:54.754Z,4.37
2018-09-23T09:43:56.057Z,3.60
2018-09-23T09:53:57.263Z,4.30
2018-09-23T10:03:58.642Z,3.47
2018-09-23T10:13:59.783Z,3.67
2018-09-23T10:24:01.113Z,3.37
2018-09-23T10:34:02.341Z,3.50
2018-09-23T10:44:03.601Z,3.10
2018-09-23T10:54:04.944Z,3.30
2018-09-23T11:04:06.269Z,3.50
2018-09-23T11:14:10.316Z,2.63
2018-09-23T11:24:12.452Z,2.33
2018-09-23T11:34:13.717Z,2.33
2018-09-23T11:44:14.954Z,2.30
2018-09-23T11:54:16.203Z,3.10
2018-09-23T12:04:17.502Z,3.90
2018-09-23T12:14:18.779Z,2.57
2018-09-23T12:24:20.271Z,2.87
2018-09-23T12:34:21.530Z,2.80
2018-09-23T12:44:22.895Z,3.30
2018-09-23T12:54:24.283Z,2.70
2018-09-23T13:04:25.610Z,3.27
2018-09-23T13:14:26.897Z,3.00
2018-09-23T13:24:31.372Z,2.80
2018-09-23T13:34:35.337Z,2.30
2018-09-23T13:44:40.468Z,2.90
2018-09-23T13:54:42.640Z,2.77
2018-09-23T14:04:44.830Z,2.83
2018-09-23T14:14:48.271Z,2.57
2018-09-23T14:24:51.507Z,2.83
2018-09-23T14:34:53.899Z,2.30
2018-09-23T14:44:57.218Z,2.93
2018-09-23T14:54:59.600Z,3.17
2018-09-23T15:05:06.588Z,3.50
2018-09-23T15:15:08.017Z,3.40
2018-09-23T15:25:10.345Z,3.30
2018-09-23T15:35:12.661Z,3.30
2018-09-23T15:45:13.927Z,3.60
2018-09-23T15:55:15.191Z,4.10
2018-09-23T16:05:16.472Z,3.77
2018-09-23T16:15:18.499Z,3.40
2018-09-23T16:25:19.911Z,3.70
2018-09-23T16:35:21.179Z,3.70
2018-09-23T16:45:22.475Z,3.77
2018-09-23T16:55:24.565Z,3.43
2018-09-23T17:05:25.852Z,3.50
2018-09-23T17:15:27.267Z,4.20
2018-09-23T17:25:28.510Z,4.00
2018-09-23T17:35:29.783Z,4.00
2018-09-23T17:45:31.806Z,4.60
2018-09-23T17:55:33.159Z,4.70
2018-09-23T18:05:34.358Z,4.60
2018-09-23T18:15:35.617Z,5.23
2018-09-23T18:25:36.887Z,4.93
2018-09-23T18:35:38.829Z,5.87
2018-09-23T18:45:40.330Z,4.47
2018-09-23T18:55:41.656Z,5.63
2018-09-23T19:05:43.042Z,5.33
2018-09-23T19:15:44.338Z,5.03
2018-09-23T19:25:45.618Z,7.57
2018-09-23T19:35:46.871Z,7.13
2018-09-23T19:45:48.147Z,5.77
2018-09-23T19:55:49.387Z,5.23
2018-09-23T20:05:50.646Z,5.70
2018-09-23T20:15:51.958Z,6.37
2018-09-23T20:25:53.234Z,7.20
2018-09-23T20:35:55.350Z,7.47
2018-09-23T20:45:56.578Z,6.17
2018-09-23T20:55:57.855Z,5.53
2018-09-23T21:05:59.121Z,5.80
2018-09-23T21:16:00.385Z,6.13
2018-09-23T21:26:01.646Z,6.73
2018-09-23T21:36:02.887Z,7.40
2018-09-23T21:46:04.161Z,7.00
2018-09-23T21:56:05.406Z,6.63
2018-09-23T22:06:06.693Z,6.13
2018-09-23T22:16:07.972Z,6.10
2018-09-23T22:26:09.236Z,6.10
2018-09-23T22:36:10.490Z,6.37
2018-09-23T22:46:11.755Z,5.90
2018-09-23T22:56:13.051Z,4.40
2018-09-23T23:06:14.288Z,1.60
2018-09-23T23:16:15.567Z,1.00
2018-09-23T23:26:16.838Z,0.50
2018-09-23T23:36:18.075Z,0.33
2018-09-23T23:46:19.327Z,0.20
2018-09-23T23:56:20.590Z,0.17
